sensor_id;sensor_type;location;lat;lon;timestamp;P1;durP1;ratioP1;P2;durP2;ratioP2
69917;SDS011;57203;42.672;23.334;2023-03-04T00:00:24;20.2;;;13.9;;
69917;SDS011;57203;42.672;23.334;2023-03-04T00:01:25;20.2;;;13.3;;
69917;SDS011;57203;42.672;23.334;2023-03-04T00:03:25;20.3;;;12.7;;
69917;SDS011;57203;42.672;23.334;2023-03-04T00:04:25;19.4;;;13.4;;
69917;SDS011;57203;42.672;23.334;2023-03-04T00:05:25;20.3;;;12.7;;
69917;SDS011;57203;42.672;23.334;2023-03-04T00:06:25;19.4;;;13.0;;
69917;SDS011;57203;42.672;23.334;2023-03-04T00:07:26;18.9;;;12.2;;
69917;SDS011;57203;42.672;23.334;2023-03-04T00:08:26;20.8;;;13.6;;
69917;SDS011;57203;42.672;23.334;2023-03-04T00:09:26;19.9;;;13.0;;
69917;SDS011;57203;42.672;23.334;2023-03-04T00:10:26;20.1;;;13.5;;
69917;SDS011;57203;42.672;23.334;2023-03-04T00:11:26;21.1;;;13.4;;
69917;SDS011;57203;42.672;23.334;2023-03-04T00:12:27;23.9;;;12.4;;
69917;SDS011;57203;42.672;23.334;2023-03-04T00:13:27;21.0;;;13.4;;
69917;SDS011;57203;42.672;23.334;2023-03-04T00:15:27;21.3;;;13.6;;
69917;SDS011;57203;42.672;23.334;2023-03-04T00:16:27;21.3;;;13.4;;
69917;SDS011;57203;42.672;23.334;2023-03-04T00:17:27;22.5;;;13.1;;
69917;SDS011;57203;42.672;23.334;2023-03-04T00:19:28;20.7;;;12.4;;
69917;SDS011;57203;42.672;23.334;2023-03-04T00:20:28;20.7;;;12.2;;
69917;SDS011;57203;42.672;23.334;2023-03-04T00:21:28;21.4;;;13.5;;
69917;SDS011;57203;42.672;23.334;2023-03-04T00:23:28;19.6;;;12.8;;
69917;SDS011;57203;42.672;23.334;2023-03-04T00:24:29;20.8;;;12.5;;
69917;SDS011;57203;42.672;23.334;2023-03-04T00:25:29;20.8;;;12.3;;
69917;SDS011;57203;42.672;23.334;2023-03-04T00:26:29;21.1;;;12.8;;
69917;SDS011;57203;42.672;23.334;2023-03-04T00:27:29;19.4;;;13.6;;
69917;SDS011;57203;42.672;23.334;2023-03-04T00:28:29;21.4;;;16.6;;
69917;SDS011;57203;42.672;23.334;2023-03-04T00:29:29;26.7;;;14.1;;
69917;SDS011;57203;42.672;23.334;2023-03-04T00:30:30;22.4;;;14.8;;
69917;SDS011;57203;42.672;23.334;2023-03-04T00:31:30;22.7;;;14.5;;
69917;SDS011;57203;42.672;23.334;2023-03-04T00:32:30;22.6;;;12.9;;
69917;SDS011;57203;42.672;23.334;2023-03-04T00:33:30;20.6;;;13.4;;
69917;SDS011;57203;42.672;23.334;2023-03-04T00:34:30;20.4;;;13.8;;
69917;SDS011;57203;42.672;23.334;2023-03-04T00:35:30;20.4;;;12.8;;
69917;SDS011;57203;42.672;23.334;2023-03-04T00:36:31;21.6;;;14.0;;
69917;SDS011;57203;42.672;23.334;2023-03-04T00:37:31;21.4;;;14.1;;
69917;SDS011;57203;42.672;23.334;2023-03-04T00:38:31;21.4;;;14.4;;
69917;SDS011;57203;42.672;23.334;2023-03-04T00:39:31;21.0;;;13.7;;
69917;SDS011;57203;42.672;23.334;2023-03-04T00:40:31;20.4;;;13.2;;
69917;SDS011;57203;42.672;23.334;2023-03-04T00:41:32;20.4;;;12.9;;
69917;SDS011;57203;42.672;23.334;2023-03-04T00:42:32;20.6;;;12.6;;
69917;SDS011;57203;42.672;23.334;2023-03-04T00:43:32;19.7;;;12.3;;
69917;SDS011;57203;42.672;23.334;2023-03-04T00:44:32;18.9;;;12.6;;
69917;SDS011;57203;42.672;23.334;2023-03-04T00:45:32;20.5;;;14.1;;
69917;SDS011;57203;42.672;23.334;2023-03-04T00:46:32;21.8;;;14.3;;
69917;SDS011;57203;42.672;23.334;2023-03-04T00:47:33;21.8;;;13.0;;
69917;SDS011;57203;42.672;23.334;2023-03-04T00:48:33;21.8;;;12.2;;
69917;SDS011;57203;42.672;23.334;2023-03-04T00:49:33;20.6;;;13.9;;
69917;SDS011;57203;42.672;23.334;2023-03-04T00:50:33;22.2;;;13.3;;
69917;SDS011;57203;42.672;23.334;2023-03-04T00:51:33;21.3;;;12.5;;
69917;SDS011;57203;42.672;23.334;2023-03-04T00:52:33;20.8;;;12.7;;
69917;SDS011;57203;42.672;23.334;2023-03-04T00:53:34;21.1;;;13.2;;
69917;SDS011;57203;42.672;23.334;2023-03-04T00:54:34;21.0;;;13.5;;
69917;SDS011;57203;42.672;23.334;2023-03-04T00:55:34;22.4;;;13.8;;
69917;SDS011;57203;42.672;23.334;2023-03-04T00:56:34;22.3;;;14.2;;
69917;SDS011;57203;42.672;23.334;2023-03-04T00:58:34;22.6;;;13.9;;
69917;SDS011;57203;42.672;23.334;2023-03-04T00:59:35;21.3;;;13.7;;
69917;SDS011;57203;42.672;23.334;2023-03-04T01:00:35;21.3;;;12.8;;
69917;SDS011;57203;42.672;23.334;2023-03-04T01:01:35;21.8;;;13.3;;
69917;SDS011;57203;42.672;23.334;2023-03-04T01:02:35;23.7;;;13.5;;
69917;SDS011;57203;42.672;23.334;2023-03-04T01:03:35;20.7;;;13.3;;
69917;SDS011;57203;42.672;23.334;2023-03-04T01:04:36;19.2;;;12.9;;
69917;SDS011;57203;42.672;23.334;2023-03-04T01:05:36;19.2;;;12.7;;
69917;SDS011;57203;42.672;23.334;2023-03-04T01:06:36;18.6;;;13.5;;
69917;SDS011;57203;42.672;23.334;2023-03-04T01:07:36;20.4;;;16.1;;
69917;SDS011;57203;42.672;23.334;2023-03-04T01:08:36;25.6;;;15.6;;
69917;SDS011;57203;42.672;23.334;2023-03-04T01:09:36;25.8;;;12.8;;
69917;SDS011;57203;42.672;23.334;2023-03-04T01:10:36;20.4;;;13.6;;
69917;SDS011;57203;42.672;23.334;2023-03-04T01:11:37;17.9;;;11.6;;
69917;SDS011;57203;42.672;23.334;2023-03-04T01:12:37;17.9;;;12.8;;
69917;SDS011;57203;42.672;23.334;2023-03-04T01:13:37;18.7;;;11.4;;
69917;SDS011;57203;42.672;23.334;2023-03-04T01:14:37;19.6;;;11.8;;
69917;SDS011;57203;42.672;23.334;2023-03-04T01:15:37;19.3;;;11.6;;
69917;SDS011;57203;42.672;23.334;2023-03-04T01:16:37;19.1;;;12.5;;
69917;SDS011;57203;42.672;23.334;2023-03-04T01:18:38;18.9;;;11.8;;
69917;SDS011;57203;42.672;23.334;2023-03-04T01:19:38;18.9;;;13.5;;
69917;SDS011;57203;42.672;23.334;2023-03-04T01:20:38;23.0;;;12.9;;
69917;SDS011;57203;42.672;23.334;2023-03-04T01:21:38;20.1;;;11.6;;
69917;SDS011;57203;42.672;23.334;2023-03-04T01:22:39;18.2;;;12.4;;
69917;SDS011;57203;42.672;23.334;2023-03-04T01:23:39;19.5;;;12.7;;
69917;SDS011;57203;42.672;23.334;2023-03-04T01:24:39;19.8;;;11.9;;
69917;SDS011;57203;42.672;23.334;2023-03-04T01:25:39;16.8;;;12.9;;
69917;SDS011;57203;42.672;23.334;2023-03-04T01:26:39;19.5;;;13.5;;
69917;SDS011;57203;42.672;23.334;2023-03-04T01:27:39;19.4;;;12.4;;
69917;SDS011;57203;42.672;23.334;2023-03-04T01:28:40;16.5;;;11.9;;
69917;SDS011;57203;42.672;23.334;2023-03-04T01:29:40;20.0;;;12.2;;
69917;SDS011;57203;42.672;23.334;2023-03-04T01:30:40;20.7;;;12.4;;
69917;SDS011;57203;42.672;23.334;2023-03-04T01:31:40;20.7;;;11.7;;
69917;SDS011;57203;42.672;23.334;2023-03-04T01:32:40;21.1;;;11.6;;
69917;SDS011;57203;42.672;23.334;2023-03-04T01:33:40;21.1;;;12.5;;
69917;SDS011;57203;42.672;23.334;2023-03-04T01:34:41;18.9;;;11.4;;
69917;SDS011;57203;42.672;23.334;2023-03-04T01:35:41;18.9;;;11.2;;
69917;SDS011;57203;42.672;23.334;2023-03-04T01:36:41;19.0;;;11.4;;
69917;SDS011;57203;42.672;23.334;2023-03-04T01:37:41;18.3;;;12.8;;
69917;SDS011;57203;42.672;23.334;2023-03-04T01:38:41;20.7;;;12.9;;
69917;SDS011;57203;42.672;23.334;2023-03-04T01:39:41;19.8;;;11.9;;
69917;SDS011;57203;42.672;23.334;2023-03-04T01:40:42;19.7;;;11.6;;
69917;SDS011;57203;42.672;23.334;2023-03-04T01:41:42;20.7;;;12.4;;
69917;SDS011;57203;42.672;23.334;2023-03-04T01:42:42;17.1;;;11.8;;
69917;SDS011;57203;42.672;23.334;2023-03-04T01:43:42;18.1;;;11.6;;
69917;SDS011;57203;42.672;23.334;2023-03-04T01:44:42;19.7;;;12.8;;
69917;SDS011;57203;42.672;23.334;2023-03-04T01:45:42;19.7;;;11.2;;
69917;SDS011;57203;42.672;23.334;2023-03-04T01:46:45;18.2;;;11.4;;
69917;SDS011;57203;42.672;23.334;2023-03-04T01:47:43;19.3;;;12.4;;
69917;SDS011;57203;42.672;23.334;2023-03-04T01:48:43;18.4;;;12.5;;
69917;SDS011;57203;42.672;23.334;2023-03-04T01:49:43;18.9;;;12.6;;
69917;SDS011;57203;42.672;23.334;2023-03-04T01:51:45;19.1;;;13.0;;
69917;SDS011;57203;42.672;23.334;2023-03-04T01:52:44;19.5;;;13.1;;
69917;SDS011;57203;42.672;23.334;2023-03-04T01:53:44;21.4;;;13.3;;
69917;SDS011;57203;42.672;23.334;2023-03-04T01:54:44;19.5;;;12.7;;
69917;SDS011;57203;42.672;23.334;2023-03-04T01:55:44;19.5;;;13.3;;
69917;SDS011;57203;42.672;23.334;2023-03-04T01:56:45;18.1;;;10.9;;
69917;SDS011;57203;42.672;23.334;2023-03-04T01:57:45;18.9;;;11.8;;
69917;SDS011;57203;42.672;23.334;2023-03-04T01:58:49;18.9;;;13.9;;
69917;SDS011;57203;42.672;23.334;2023-03-04T01:59:45;23.3;;;12.2;;
69917;SDS011;57203;42.672;23.334;2023-03-04T02:00:45;19.8;;;12.0;;
69917;SDS011;57203;42.672;23.334;2023-03-04T02:01:46;19.5;;;11.2;;
69917;SDS011;57203;42.672;23.334;2023-03-04T02:02:45;18.2;;;11.7;;
69917;SDS011;57203;42.672;23.334;2023-03-04T02:04:45;20.1;;;13.0;;
69917;SDS011;57203;42.672;23.334;2023-03-04T02:05:47;19.9;;;13.1;;
69917;SDS011;57203;42.672;23.334;2023-03-04T02:06:46;20.2;;;13.0;;
69917;SDS011;57203;42.672;23.334;2023-03-04T02:07:46;21.0;;;14.1;;
69917;SDS011;57203;42.672;23.334;2023-03-04T02:08:46;21.0;;;12.8;;
69917;SDS011;57203;42.672;23.334;2023-03-04T02:09:47;19.6;;;13.4;;
69917;SDS011;57203;42.672;23.334;2023-03-04T02:10:47;19.6;;;12.7;;
69917;SDS011;57203;42.672;23.334;2023-03-04T02:11:47;20.6;;;11.8;;
69917;SDS011;57203;42.672;23.334;2023-03-04T02:12:47;20.3;;;13.9;;
69917;SDS011;57203;42.672;23.334;2023-03-04T02:13:47;20.3;;;14.1;;
69917;SDS011;57203;42.672;23.334;2023-03-04T02:14:47;21.1;;;12.3;;
69917;SDS011;57203;42.672;23.334;2023-03-04T02:15:48;21.1;;;13.2;;
69917;SDS011;57203;42.672;23.334;2023-03-04T02:16:48;22.7;;;13.5;;
69917;SDS011;57203;42.672;23.334;2023-03-04T02:17:48;20.5;;;13.7;;
69917;SDS011;57203;42.672;23.334;2023-03-04T02:18:48;20.5;;;13.5;;
69917;SDS011;57203;42.672;23.334;2023-03-04T02:19:49;20.3;;;13.1;;
69917;SDS011;57203;42.672;23.334;2023-03-04T02:20:51;19.5;;;12.3;;
69917;SDS011;57203;42.672;23.334;2023-03-04T02:21:49;20.5;;;13.0;;
69917;SDS011;57203;42.672;23.334;2023-03-04T02:23:51;25.2;;;14.2;;
69917;SDS011;57203;42.672;23.334;2023-03-04T02:24:49;21.7;;;14.1;;
69917;SDS011;57203;42.672;23.334;2023-03-04T02:25:51;22.3;;;13.0;;
69917;SDS011;57203;42.672;23.334;2023-03-04T02:27:50;21.8;;;13.2;;
69917;SDS011;57203;42.672;23.334;2023-03-04T02:28:51;21.8;;;14.2;;
69917;SDS011;57203;42.672;23.334;2023-03-04T02:29:50;20.9;;;13.0;;
69917;SDS011;57203;42.672;23.334;2023-03-04T02:31:51;21.3;;;13.1;;
69917;SDS011;57203;42.672;23.334;2023-03-04T02:32:51;22.1;;;14.0;;
69917;SDS011;57203;42.672;23.334;2023-03-04T02:33:51;21.8;;;14.3;;
69917;SDS011;57203;42.672;23.334;2023-03-04T02:34:51;21.8;;;13.2;;
69917;SDS011;57203;42.672;23.334;2023-03-04T02:35:51;22.6;;;14.7;;
69917;SDS011;57203;42.672;23.334;2023-03-04T02:36:52;22.5;;;14.4;;
69917;SDS011;57203;42.672;23.334;2023-03-04T02:37:51;22.6;;;13.6;;
69917;SDS011;57203;42.672;23.334;2023-03-04T02:38:52;21.2;;;12.5;;
69917;SDS011;57203;42.672;23.334;2023-03-04T02:40:52;20.0;;;12.9;;
69917;SDS011;57203;42.672;23.334;2023-03-04T02:41:53;19.4;;;11.6;;
69917;SDS011;57203;42.672;23.334;2023-03-04T02:42:52;18.8;;;13.5;;
69917;SDS011;57203;42.672;23.334;2023-03-04T02:43:53;20.7;;;13.6;;
69917;SDS011;57203;42.672;23.334;2023-03-04T02:44:58;20.0;;;12.8;;
69917;SDS011;57203;42.672;23.334;2023-03-04T02:45:53;23.2;;;13.4;;
69917;SDS011;57203;42.672;23.334;2023-03-04T02:46:53;21.7;;;13.9;;
69917;SDS011;57203;42.672;23.334;2023-03-04T02:47:53;22.4;;;13.6;;
69917;SDS011;57203;42.672;23.334;2023-03-04T02:48:53;21.0;;;12.6;;
69917;SDS011;57203;42.672;23.334;2023-03-04T02:49:53;21.0;;;11.9;;
69917;SDS011;57203;42.672;23.334;2023-03-04T02:50:54;20.2;;;13.0;;
69917;SDS011;57203;42.672;23.334;2023-03-04T02:51:57;20.2;;;13.1;;
69917;SDS011;57203;42.672;23.334;2023-03-04T02:52:54;20.2;;;11.7;;
69917;SDS011;57203;42.672;23.334;2023-03-04T02:53:54;19.0;;;12.2;;
69917;SDS011;57203;42.672;23.334;2023-03-04T02:54:54;20.9;;;13.6;;
69917;SDS011;57203;42.672;23.334;2023-03-04T02:55:55;19.5;;;14.3;;
69917;SDS011;57203;42.672;23.334;2023-03-04T02:56:56;21.2;;;14.4;;
69917;SDS011;57203;42.672;23.334;2023-03-04T02:57:55;21.2;;;14.6;;
69917;SDS011;57203;42.672;23.334;2023-03-04T02:58:55;23.0;;;14.0;;
69917;SDS011;57203;42.672;23.334;2023-03-04T02:59:55;23.2;;;15.2;;
69917;SDS011;57203;42.672;23.334;2023-03-04T03:00:55;26.8;;;13.8;;
69917;SDS011;57203;42.672;23.334;2023-03-04T03:01:56;25.1;;;14.2;;
69917;SDS011;57203;42.672;23.334;2023-03-04T03:02:56;26.1;;;14.6;;
69917;SDS011;57203;42.672;23.334;2023-03-04T03:03:56;24.8;;;13.7;;
69917;SDS011;57203;42.672;23.334;2023-03-04T03:04:56;24.0;;;12.0;;
69917;SDS011;57203;42.672;23.334;2023-03-04T03:05:56;24.0;;;14.3;;
69917;SDS011;57203;42.672;23.334;2023-03-04T03:06:57;22.9;;;13.2;;
69917;SDS011;57203;42.672;23.334;2023-03-04T03:07:57;22.9;;;13.1;;
69917;SDS011;57203;42.672;23.334;2023-03-04T03:08:57;23.6;;;14.6;;
69917;SDS011;57203;42.672;23.334;2023-03-04T03:09:57;21.3;;;12.9;;
69917;SDS011;57203;42.672;23.334;2023-03-04T03:10:57;22.6;;;14.8;;
69917;SDS011;57203;42.672;23.334;2023-03-04T03:11:57;20.9;;;13.0;;
69917;SDS011;57203;42.672;23.334;2023-03-04T03:12:58;20.9;;;13.9;;
69917;SDS011;57203;42.672;23.334;2023-03-04T03:13:58;22.2;;;14.6;;
69917;SDS011;57203;42.672;23.334;2023-03-04T03:15:58;24.2;;;14.7;;
69917;SDS011;57203;42.672;23.334;2023-03-04T03:16:58;25.1;;;15.0;;
69917;SDS011;57203;42.672;23.334;2023-03-04T03:17:58;24.5;;;14.8;;
69917;SDS011;57203;42.672;23.334;2023-03-04T03:18:59;23.4;;;13.5;;
69917;SDS011;57203;42.672;23.334;2023-03-04T03:19:59;25.2;;;13.7;;
69917;SDS011;57203;42.672;23.334;2023-03-04T03:20:59;25.2;;;15.1;;
69917;SDS011;57203;42.672;23.334;2023-03-04T03:21:59;24.5;;;14.2;;
69917;SDS011;57203;42.672;23.334;2023-03-04T03:22:59;22.8;;;13.1;;
69917;SDS011;57203;42.672;23.334;2023-03-04T03:25:00;24.2;;;12.9;;
69917;SDS011;57203;42.672;23.334;2023-03-04T03:26:00;21.9;;;13.0;;
69917;SDS011;57203;42.672;23.334;2023-03-04T03:27:00;23.3;;;14.6;;
69917;SDS011;57203;42.672;23.334;2023-03-04T03:28:00;23.3;;;15.0;;
69917;SDS011;57203;42.672;23.334;2023-03-04T03:29:00;22.5;;;13.8;;
69917;SDS011;57203;42.672;23.334;2023-03-04T03:30:01;22.1;;;12.8;;
69917;SDS011;57203;42.672;23.334;2023-03-04T03:31:01;22.1;;;13.8;;
69917;SDS011;57203;42.672;23.334;2023-03-04T03:32:01;24.5;;;14.5;;
69917;SDS011;57203;42.672;23.334;2023-03-04T03:33:01;24.5;;;14.7;;
69917;SDS011;57203;42.672;23.334;2023-03-04T03:34:01;22.9;;;13.7;;
69917;SDS011;57203;42.672;23.334;2023-03-04T03:35:01;23.4;;;13.5;;
69917;SDS011;57203;42.672;23.334;2023-03-04T03:36:02;23.4;;;15.0;;
69917;SDS011;57203;42.672;23.334;2023-03-04T03:37:02;24.7;;;15.5;;
69917;SDS011;57203;42.672;23.334;2023-03-04T03:38:02;25.7;;;15.3;;
69917;SDS011;57203;42.672;23.334;2023-03-04T03:39:02;25.7;;;14.1;;
69917;SDS011;57203;42.672;23.334;2023-03-04T03:40:02;23.6;;;12.6;;
69917;SDS011;57203;42.672;23.334;2023-03-04T03:41:02;23.7;;;15.0;;
69917;SDS011;57203;42.672;23.334;2023-03-04T03:42:02;25.6;;;13.3;;
69917;SDS011;57203;42.672;23.334;2023-03-04T03:43:03;25.6;;;16.7;;
69917;SDS011;57203;42.672;23.334;2023-03-04T03:44:03;27.6;;;15.6;;
69917;SDS011;57203;42.672;23.334;2023-03-04T03:45:03;25.1;;;16.3;;
69917;SDS011;57203;42.672;23.334;2023-03-04T03:46:03;26.4;;;21.0;;
69917;SDS011;57203;42.672;23.334;2023-03-04T03:47:04;33.7;;;20.1;;
69917;SDS011;57203;42.672;23.334;2023-03-04T03:48:03;33.7;;;18.1;;
69917;SDS011;57203;42.672;23.334;2023-03-04T03:49:04;31.7;;;17.6;;
69917;SDS011;57203;42.672;23.334;2023-03-04T03:50:05;29.4;;;15.2;;
69917;SDS011;57203;42.672;23.334;2023-03-04T03:52:04;29.7;;;15.4;;
69917;SDS011;57203;42.672;23.334;2023-03-04T03:53:04;29.7;;;16.5;;
69917;SDS011;57203;42.672;23.334;2023-03-04T03:54:05;26.7;;;14.3;;
69917;SDS011;57203;42.672;23.334;2023-03-04T03:55:05;26.7;;;14.9;;
69917;SDS011;57203;42.672;23.334;2023-03-04T03:56:05;27.4;;;16.1;;
69917;SDS011;57203;42.672;23.334;2023-03-04T03:57:05;27.7;;;17.1;;
69917;SDS011;57203;42.672;23.334;2023-03-04T03:58:05;27.7;;;14.9;;
69917;SDS011;57203;42.672;23.334;2023-03-04T03:59:06;29.2;;;15.4;;
69917;SDS011;57203;42.672;23.334;2023-03-04T04:00:07;28.1;;;16.8;;
69917;SDS011;57203;42.672;23.334;2023-03-04T04:01:06;26.1;;;14.4;;
69917;SDS011;57203;42.672;23.334;2023-03-04T04:02:06;26.1;;;15.6;;
69917;SDS011;57203;42.672;23.334;2023-03-04T04:03:06;28.4;;;16.6;;
69917;SDS011;57203;42.672;23.334;2023-03-04T04:04:06;24.7;;;16.0;;
69917;SDS011;57203;42.672;23.334;2023-03-04T04:05:07;27.8;;;14.7;;
69917;SDS011;57203;42.672;23.334;2023-03-04T04:06:07;27.8;;;14.9;;
69917;SDS011;57203;42.672;23.334;2023-03-04T04:07:07;26.9;;;16.1;;
69917;SDS011;57203;42.672;23.334;2023-03-04T04:08:09;25.6;;;16.0;;
69917;SDS011;57203;42.672;23.334;2023-03-04T04:09:07;27.4;;;14.4;;
69917;SDS011;57203;42.672;23.334;2023-03-04T04:10:09;27.7;;;15.5;;
69917;SDS011;57203;42.672;23.334;2023-03-04T04:12:08;26.1;;;14.5;;
69917;SDS011;57203;42.672;23.334;2023-03-04T04:13:08;24.3;;;15.3;;
69917;SDS011;57203;42.672;23.334;2023-03-04T04:14:10;26.2;;;14.4;;
69917;SDS011;57203;42.672;23.334;2023-03-04T04:15:09;26.2;;;16.5;;
69917;SDS011;57203;42.672;23.334;2023-03-04T04:16:09;27.5;;;15.5;;
69917;SDS011;57203;42.672;23.334;2023-03-04T04:17:09;27.5;;;27.6;;
69917;SDS011;57203;42.672;23.334;2023-03-04T04:18:09;40.7;;;17.5;;
69917;SDS011;57203;42.672;23.334;2023-03-04T04:19:11;28.8;;;20.0;;
69917;SDS011;57203;42.672;23.334;2023-03-04T04:20:10;34.5;;;18.3;;
69917;SDS011;57203;42.672;23.334;2023-03-04T04:21:09;34.5;;;20.4;;
69917;SDS011;57203;42.672;23.334;2023-03-04T04:22:11;31.8;;;14.9;;
69917;SDS011;57203;42.672;23.334;2023-03-04T04:24:10;29.7;;;16.0;;
69917;SDS011;57203;42.672;23.334;2023-03-04T04:25:10;29.7;;;16.5;;
69917;SDS011;57203;42.672;23.334;2023-03-04T04:27:10;26.7;;;15.6;;
69917;SDS011;57203;42.672;23.334;2023-03-04T04:28:11;26.7;;;16.0;;
69917;SDS011;57203;42.672;23.334;2023-03-04T04:29:12;25.6;;;15.3;;
69917;SDS011;57203;42.672;23.334;2023-03-04T04:30:11;28.7;;;18.3;;
69917;SDS011;57203;42.672;23.334;2023-03-04T04:31:11;35.9;;;23.1;;
69917;SDS011;57203;42.672;23.334;2023-03-04T04:32:11;35.9;;;21.1;;
69917;SDS011;57203;42.672;23.334;2023-03-04T04:33:11;30.4;;;16.4;;
69917;SDS011;57203;42.672;23.334;2023-03-04T04:34:11;26.6;;;14.9;;
69917;SDS011;57203;42.672;23.334;2023-03-04T04:35:12;26.2;;;14.4;;
69917;SDS011;57203;42.672;23.334;2023-03-04T04:36:12;28.4;;;15.2;;
69917;SDS011;57203;42.672;23.334;2023-03-04T04:37:12;28.4;;;14.8;;
69917;SDS011;57203;42.672;23.334;2023-03-04T04:38:12;32.2;;;14.6;;
69917;SDS011;57203;42.672;23.334;2023-03-04T04:39:12;32.2;;;17.1;;
69917;SDS011;57203;42.672;23.334;2023-03-04T04:40:13;27.4;;;15.7;;
69917;SDS011;57203;42.672;23.334;2023-03-04T04:41:16;30.0;;;15.6;;
69917;SDS011;57203;42.672;23.334;2023-03-04T04:42:13;30.0;;;16.3;;
69917;SDS011;57203;42.672;23.334;2023-03-04T04:43:13;30.5;;;15.5;;
69917;SDS011;57203;42.672;23.334;2023-03-04T04:44:13;31.5;;;16.8;;
69917;SDS011;57203;42.672;23.334;2023-03-04T04:45:13;29.9;;;16.0;;
69917;SDS011;57203;42.672;23.334;2023-03-04T04:46:14;28.2;;;15.2;;
69917;SDS011;57203;42.672;23.334;2023-03-04T04:47:14;28.2;;;17.5;;
69917;SDS011;57203;42.672;23.334;2023-03-04T04:48:14;30.4;;;16.3;;
69917;SDS011;57203;42.672;23.334;2023-03-04T04:49:14;31.4;;;17.1;;
69917;SDS011;57203;42.672;23.334;2023-03-04T04:50:14;31.4;;;16.7;;
69917;SDS011;57203;42.672;23.334;2023-03-04T04:51:14;31.6;;;17.5;;
69917;SDS011;57203;42.672;23.334;2023-03-04T04:52:14;33.7;;;19.0;;
69917;SDS011;57203;42.672;23.334;2023-03-04T04:53:15;33.3;;;17.1;;
69917;SDS011;57203;42.672;23.334;2023-03-04T04:54:15;31.0;;;15.5;;
69917;SDS011;57203;42.672;23.334;2023-03-04T04:55:15;30.8;;;16.3;;
69917;SDS011;57203;42.672;23.334;2023-03-04T04:56:16;30.8;;;16.1;;
69917;SDS011;57203;42.672;23.334;2023-03-04T04:57:15;30.4;;;17.1;;
69917;SDS011;57203;42.672;23.334;2023-03-04T04:58:15;32.9;;;17.4;;
69917;SDS011;57203;42.672;23.334;2023-03-04T04:59:16;32.7;;;17.7;;
69917;SDS011;57203;42.672;23.334;2023-03-04T05:00:16;30.8;;;17.9;;
69917;SDS011;57203;42.672;23.334;2023-03-04T05:01:16;32.5;;;19.8;;
69917;SDS011;57203;42.672;23.334;2023-03-04T05:02:16;31.0;;;16.7;;
69917;SDS011;57203;42.672;23.334;2023-03-04T05:03:16;31.0;;;18.1;;
69917;SDS011;57203;42.672;23.334;2023-03-04T05:04:16;32.1;;;17.3;;
69917;SDS011;57203;42.672;23.334;2023-03-04T05:05:17;32.1;;;19.4;;
69917;SDS011;57203;42.672;23.334;2023-03-04T05:06:17;37.9;;;18.7;;
69917;SDS011;57203;42.672;23.334;2023-03-04T05:07:17;37.9;;;17.3;;
69917;SDS011;57203;42.672;23.334;2023-03-04T05:08:17;35.5;;;17.6;;
69917;SDS011;57203;42.672;23.334;2023-03-04T05:09:17;38.3;;;20.0;;
69917;SDS011;57203;42.672;23.334;2023-03-04T05:10:17;36.1;;;18.1;;
69917;SDS011;57203;42.672;23.334;2023-03-04T05:11:18;36.1;;;17.4;;
69917;SDS011;57203;42.672;23.334;2023-03-04T05:12:18;35.7;;;19.8;;
69917;SDS011;57203;42.672;23.334;2023-03-04T05:13:18;38.0;;;19.3;;
69917;SDS011;57203;42.672;23.334;2023-03-04T05:14:18;39.5;;;18.9;;
69917;SDS011;57203;42.672;23.334;2023-03-04T05:15:18;37.5;;;19.6;;
69917;SDS011;57203;42.672;23.334;2023-03-04T05:16:18;39.3;;;21.5;;
69917;SDS011;57203;42.672;23.334;2023-03-04T05:17:18;41.5;;;18.8;;
69917;SDS011;57203;42.672;23.334;2023-03-04T05:18:19;36.6;;;20.1;;
69917;SDS011;57203;42.672;23.334;2023-03-04T05:19:19;37.5;;;18.1;;
69917;SDS011;57203;42.672;23.334;2023-03-04T05:20:19;37.5;;;20.3;;
69917;SDS011;57203;42.672;23.334;2023-03-04T05:21:19;37.2;;;20.4;;
69917;SDS011;57203;42.672;23.334;2023-03-04T05:23:20;34.9;;;19.8;;
69917;SDS011;57203;42.672;23.334;2023-03-04T05:24:20;34.1;;;18.9;;
69917;SDS011;57203;42.672;23.334;2023-03-04T05:25:20;34.5;;;17.9;;
69917;SDS011;57203;42.672;23.334;2023-03-04T05:26:20;38.6;;;17.6;;
69917;SDS011;57203;42.672;23.334;2023-03-04T05:27:20;33.1;;;17.9;;
69917;SDS011;57203;42.672;23.334;2023-03-04T05:28:20;35.6;;;19.6;;
69917;SDS011;57203;42.672;23.334;2023-03-04T05:29:21;33.4;;;19.7;;
69917;SDS011;57203;42.672;23.334;2023-03-04T05:30:21;35.6;;;19.4;;
69917;SDS011;57203;42.672;23.334;2023-03-04T05:31:21;35.6;;;17.4;;
69917;SDS011;57203;42.672;23.334;2023-03-04T05:32:21;32.7;;;20.0;;
69917;SDS011;57203;42.672;23.334;2023-03-04T05:33:21;34.0;;;18.9;;
69917;SDS011;57203;42.672;23.334;2023-03-04T05:34:21;33.3;;;18.5;;
69917;SDS011;57203;42.672;23.334;2023-03-04T05:36:22;30.7;;;17.2;;
69917;SDS011;57203;42.672;23.334;2023-03-04T05:37:22;31.7;;;16.2;;
69917;SDS011;57203;42.672;23.334;2023-03-04T05:38:22;30.2;;;17.5;;
69917;SDS011;57203;42.672;23.334;2023-03-04T05:39:22;32.9;;;18.6;;
69917;SDS011;57203;42.672;23.334;2023-03-04T05:40:22;29.7;;;17.2;;
69917;SDS011;57203;42.672;23.334;2023-03-04T05:41:23;29.7;;;22.8;;
69917;SDS011;57203;42.672;23.334;2023-03-04T05:42:23;36.6;;;18.5;;
69917;SDS011;57203;42.672;23.334;2023-03-04T05:43:23;33.8;;;21.7;;
69917;SDS011;57203;42.672;23.334;2023-03-04T05:44:23;35.8;;;23.1;;
69917;SDS011;57203;42.672;23.334;2023-03-04T05:45:24;44.4;;;27.0;;
69917;SDS011;57203;42.672;23.334;2023-03-04T05:46:23;41.8;;;47.1;;
69917;SDS011;57203;42.672;23.334;2023-03-04T05:47:24;69.4;;;24.5;;
69917;SDS011;57203;42.672;23.334;2023-03-04T05:48:24;42.7;;;25.9;;
69917;SDS011;57203;42.672;23.334;2023-03-04T05:49:24;42.7;;;21.3;;
69917;SDS011;57203;42.672;23.334;2023-03-04T05:50:24;38.1;;;23.7;;
69917;SDS011;57203;42.672;23.334;2023-03-04T05:51:24;44.0;;;23.2;;
69917;SDS011;57203;42.672;23.334;2023-03-04T05:52:25;42.7;;;22.9;;
69917;SDS011;57203;42.672;23.334;2023-03-04T05:53:25;41.8;;;24.8;;
69917;SDS011;57203;42.672;23.334;2023-03-04T05:54:25;45.4;;;22.6;;
69917;SDS011;57203;42.672;23.334;2023-03-04T05:55:25;45.4;;;22.5;;
69917;SDS011;57203;42.672;23.334;2023-03-04T05:56:25;39.5;;;22.2;;
69917;SDS011;57203;42.672;23.334;2023-03-04T05:57:25;36.1;;;20.4;;
69917;SDS011;57203;42.672;23.334;2023-03-04T05:58:26;43.2;;;18.5;;
69917;SDS011;57203;42.672;23.334;2023-03-04T05:59:26;36.1;;;20.1;;
69917;SDS011;57203;42.672;23.334;2023-03-04T06:00:26;32.6;;;19.5;;
69917;SDS011;57203;42.672;23.334;2023-03-04T06:01:26;32.6;;;21.6;;
69917;SDS011;57203;42.672;23.334;2023-03-04T06:02:26;35.5;;;20.8;;
69917;SDS011;57203;42.672;23.334;2023-03-04T06:03:26;35.5;;;19.2;;
69917;SDS011;57203;42.672;23.334;2023-03-04T06:04:27;32.2;;;20.6;;
69917;SDS011;57203;42.672;23.334;2023-03-04T06:06:27;35.8;;;19.9;;
69917;SDS011;57203;42.672;23.334;2023-03-04T06:07:27;34.2;;;18.5;;
69917;SDS011;57203;42.672;23.334;2023-03-04T06:08:27;32.0;;;20.7;;
69917;SDS011;57203;42.672;23.334;2023-03-04T06:09:27;33.3;;;18.3;;
69917;SDS011;57203;42.672;23.334;2023-03-04T06:10:28;29.4;;;18.4;;
69917;SDS011;57203;42.672;23.334;2023-03-04T06:11:28;29.7;;;18.1;;
69917;SDS011;57203;42.672;23.334;2023-03-04T06:12:28;28.7;;;17.2;;
69917;SDS011;57203;42.672;23.334;2023-03-04T06:13:28;29.1;;;18.4;;
69917;SDS011;57203;42.672;23.334;2023-03-04T06:14:28;26.8;;;17.2;;
69917;SDS011;57203;42.672;23.334;2023-03-04T06:15:28;28.9;;;16.4;;
69917;SDS011;57203;42.672;23.334;2023-03-04T06:16:29;28.9;;;16.6;;
69917;SDS011;57203;42.672;23.334;2023-03-04T06:17:29;30.7;;;19.3;;